sensor_id;sensor_type;location;lat;lon;timestamp;pressure;altitude;pressure_sealevel;temperature;humidity
70248;BME280;57641;51.416;5.506;2022-11-15T00:00:33;100942.34;;;12.94;64.29
70248;BME280;57641;51.416;5.506;2022-11-15T00:02:59;100938.31;;;12.98;63.93
70248;BME280;57641;51.416;5.506;2022-11-15T00:05:25;100935.13;;;13.02;63.95
70248;BME280;57641;51.416;5.506;2022-11-15T00:07:50;100932.94;;;13.06;63.83
70248;BME280;57641;51.416;5.506;2022-11-15T00:10:15;100931.63;;;13.10;63.53
70248;BME280;57641;51.416;5.506;2022-11-15T00:12:41;100938.34;;;13.14;63.96
70248;BME280;57641;51.416;5.506;2022-11-15T00:15:07;100933.69;;;13.16;63.97
70248;BME280;57641;51.416;5.506;2022-11-15T00:17:32;100934.31;;;13.18;63.56
70248;BME280;57641;51.416;5.506;2022-11-15T00:19:58;100936.84;;;13.20;63.41
70248;BME280;57641;51.416;5.506;2022-11-15T00:22:23;100928.47;;;13.23;63.70
70248;BME280;57641;51.416;5.506;2022-11-15T00:24:49;100928.47;;;13.23;64.00
70248;BME280;57641;51.416;5.506;2022-11-15T00:27:14;100937.00;;;13.26;64.10
70248;BME280;57641;51.416;5.506;2022-11-15T00:29:40;100931.31;;;13.29;63.65
70248;BME280;57641;51.416;5.506;2022-11-15T00:32:11;100931.16;;;13.31;63.97
70248;BME280;57641;51.416;5.506;2022-11-15T00:34:37;100933.66;;;13.32;63.93
70248;BME280;57641;51.416;5.506;2022-11-15T00:37:03;100921.94;;;13.33;64.03
70248;BME280;57641;51.416;5.506;2022-11-15T00:39:28;100929.81;;;13.35;63.98
70248;BME280;57641;51.416;5.506;2022-11-15T00:41:57;100928.28;;;13.40;63.87
70248;BME280;57641;51.416;5.506;2022-11-15T00:44:22;100925.97;;;13.37;63.74
70248;BME280;57641;51.416;5.506;2022-11-15T00:46:47;100924.94;;;13.38;64.41
70248;BME280;57641;51.416;5.506;2022-11-15T00:49:13;100908.38;;;13.43;64.29
70248;BME280;57641;51.416;5.506;2022-11-15T00:51:38;100919.09;;;13.43;64.55
70248;BME280;57641;51.416;5.506;2022-11-15T00:54:04;100918.91;;;13.44;64.36
70248;BME280;57641;51.416;5.506;2022-11-15T00:56:29;100915.72;;;13.49;64.28
70248;BME280;57641;51.416;5.506;2022-11-15T00:58:54;100907.66;;;13.49;64.83
70248;BME280;57641;51.416;5.506;2022-11-15T01:01:20;100914.53;;;13.51;65.15
70248;BME280;57641;51.416;5.506;2022-11-15T01:03:45;100914.38;;;13.53;64.95
70248;BME280;57641;51.416;5.506;2022-11-15T01:06:11;100909.66;;;13.55;64.89
70248;BME280;57641;51.416;5.506;2022-11-15T01:08:39;100915.72;;;13.57;64.99
70248;BME280;57641;51.416;5.506;2022-11-15T01:11:07;100908.16;;;13.61;65.10
70248;BME280;57641;51.416;5.506;2022-11-15T01:13:34;100907.00;;;13.63;65.11
70248;BME280;57641;51.416;5.506;2022-11-15T01:16:15;100904.28;;;13.71;65.38
70248;BME280;57641;51.416;5.506;2022-11-15T01:18:42;100898.28;;;13.69;65.11
70248;BME280;57641;51.416;5.506;2022-11-15T01:21:10;100891.88;;;13.70;65.20
70248;BME280;57641;51.416;5.506;2022-11-15T01:23:36;100903.44;;;13.71;64.91
70248;BME280;57641;51.416;5.506;2022-11-15T01:26:04;100896.41;;;13.70;65.18
70248;BME280;57641;51.416;5.506;2022-11-15T01:28:32;100903.44;;;13.71;65.08
70248;BME280;57641;51.416;5.506;2022-11-15T01:31:02;100907.78;;;13.72;65.04
70248;BME280;57641;51.416;5.506;2022-11-15T01:33:29;100895.41;;;13.71;65.20
70248;BME280;57641;51.416;5.506;2022-11-15T01:35:55;100892.03;;;13.77;65.25
70248;BME280;57641;51.416;5.506;2022-11-15T01:38:22;100893.53;;;13.79;65.40
70248;BME280;57641;51.416;5.506;2022-11-15T01:40:48;100882.47;;;13.82;65.21
70248;BME280;57641;51.416;5.506;2022-11-15T01:43:21;100883.78;;;13.86;65.56
70248;BME280;57641;51.416;5.506;2022-11-15T01:45:56;100884.78;;;13.85;65.75
70248;BME280;57641;51.416;5.506;2022-11-15T01:48:26;100888.31;;;13.86;65.82
70248;BME280;57641;51.416;5.506;2022-11-15T01:50:53;100891.66;;;13.88;65.60
70248;BME280;57641;51.416;5.506;2022-11-15T01:53:21;100876.25;;;13.90;65.92
70248;BME280;57641;51.416;5.506;2022-11-15T01:55:48;100878.22;;;13.96;66.13
70248;BME280;57641;51.416;5.506;2022-11-15T01:58:14;100870.69;;;14.00;66.49
70248;BME280;57641;51.416;5.506;2022-11-15T02:00:40;100873.16;;;14.01;67.00
70248;BME280;57641;51.416;5.506;2022-11-15T02:03:06;100876.19;;;14.06;66.62
70248;BME280;57641;51.416;5.506;2022-11-15T02:05:32;100873.97;;;14.10;67.08
70248;BME280;57641;51.416;5.506;2022-11-15T02:07:59;100874.28;;;14.15;67.18
70248;BME280;57641;51.416;5.506;2022-11-15T02:10:25;100870.91;;;14.21;67.54
70248;BME280;57641;51.416;5.506;2022-11-15T02:12:51;100864.41;;;14.15;67.62
70248;BME280;57641;51.416;5.506;2022-11-15T02:15:17;100865.03;;;14.17;69.20
70248;BME280;57641;51.416;5.506;2022-11-15T02:18:06;100868.66;;;14.32;68.66
70248;BME280;57641;51.416;5.506;2022-11-15T02:20:46;100869.13;;;14.36;68.54
70248;BME280;57641;51.416;5.506;2022-11-15T02:29:10;100869.28;;;14.34;69.08
70248;BME280;57641;51.416;5.506;2022-11-15T02:42:57;100854.50;;;14.47;69.19
70248;BME280;57641;51.416;5.506;2022-11-15T02:45:50;100858.66;;;14.49;69.17
70248;BME280;57641;51.416;5.506;2022-11-15T02:48:17;100855.28;;;14.55;69.36
70248;BME280;57641;51.416;5.506;2022-11-15T02:50:43;100857.72;;;14.65;69.23
70248;BME280;57641;51.416;5.506;2022-11-15T02:53:10;100848.41;;;14.75;68.72
70248;BME280;57641;51.416;5.506;2022-11-15T02:55:38;100848.69;;;14.80;68.68
70248;BME280;57641;51.416;5.506;2022-11-15T03:01:07;100838.63;;;14.83;68.74
70248;BME280;57641;51.416;5.506;2022-11-15T03:03:49;100833.63;;;14.79;68.78
70248;BME280;57641;51.416;5.506;2022-11-15T03:09:09;100827.34;;;14.87;68.59
70248;BME280;57641;51.416;5.506;2022-11-15T03:11:44;100821.41;;;14.92;68.48
70248;BME280;57641;51.416;5.506;2022-11-15T03:14:21;100824.94;;;14.92;68.74
70248;BME280;57641;51.416;5.506;2022-11-15T03:19:42;100817.38;;;14.96;68.61
70248;BME280;57641;51.416;5.506;2022-11-15T03:22:12;100830.44;;;14.99;68.64
70248;BME280;57641;51.416;5.506;2022-11-15T03:24:46;100826.91;;;14.98;68.63
70248;BME280;57641;51.416;5.506;2022-11-15T03:27:15;100828.03;;;15.04;68.50
70248;BME280;57641;51.416;5.506;2022-11-15T03:29:47;100835.34;;;15.10;68.72
70248;BME280;57641;51.416;5.506;2022-11-15T03:32:18;100831.28;;;15.14;68.17
70248;BME280;57641;51.416;5.506;2022-11-15T03:34:58;100821.94;;;15.10;68.18
70248;BME280;57641;51.416;5.506;2022-11-15T03:37:55;100831.44;;;15.12;68.58
70248;BME280;57641;51.416;5.506;2022-11-15T03:40:36;100829.31;;;15.08;68.80
70248;BME280;57641;51.416;5.506;2022-11-15T03:43:23;100832.66;;;15.10;68.68
70248;BME280;57641;51.416;5.506;2022-11-15T03:46:01;100831.09;;;15.15;68.63
70248;BME280;57641;51.416;5.506;2022-11-15T03:48:30;100828.88;;;15.19;68.46
70248;BME280;57641;51.416;5.506;2022-11-15T03:50:59;100834.91;;;15.21;68.22
70248;BME280;57641;51.416;5.506;2022-11-15T03:53:28;100832.34;;;15.28;68.37
70248;BME280;57641;51.416;5.506;2022-11-15T03:55:57;100826.75;;;15.29;68.35
70248;BME280;57641;51.416;5.506;2022-11-15T03:58:25;100822.88;;;15.32;68.01
70248;BME280;57641;51.416;5.506;2022-11-15T04:00:51;100829.25;;;15.31;68.25
70248;BME280;57641;51.416;5.506;2022-11-15T04:03:16;100822.50;;;15.35;67.99
70248;BME280;57641;51.416;5.506;2022-11-15T04:05:41;100818.78;;;15.36;67.63
70248;BME280;57641;51.416;5.506;2022-11-15T04:08:07;100824.56;;;15.33;67.54
70248;BME280;57641;51.416;5.506;2022-11-15T04:10:32;100827.88;;;15.35;67.77
70248;BME280;57641;51.416;5.506;2022-11-15T04:12:57;100821.47;;;15.36;67.82
70248;BME280;57641;51.416;5.506;2022-11-15T04:15:23;100825.28;;;15.41;67.81
70248;BME280;57641;51.416;5.506;2022-11-15T04:17:52;100817.22;;;15.41;67.52
70248;BME280;57641;51.416;5.506;2022-11-15T04:20:23;100816.84;;;15.44;67.66
70248;BME280;57641;51.416;5.506;2022-11-15T04:25:55;100813.53;;;15.28;67.95
70248;BME280;57641;51.416;5.506;2022-11-15T04:28:22;100819.34;;;15.31;68.15
70248;BME280;57641;51.416;5.506;2022-11-15T04:30:47;100813.03;;;15.39;67.60
70248;BME280;57641;51.416;5.506;2022-11-15T04:33:13;100818.91;;;15.42;67.73
70248;BME280;57641;51.416;5.506;2022-11-15T04:35:39;100819.16;;;15.47;67.46
70248;BME280;57641;51.416;5.506;2022-11-15T04:38:09;100823.72;;;15.47;67.53
70248;BME280;57641;51.416;5.506;2022-11-15T04:40:36;100820.63;;;15.50;67.56
70248;BME280;57641;51.416;5.506;2022-11-15T04:43:03;100825.69;;;15.53;67.22
70248;BME280;57641;51.416;5.506;2022-11-15T04:45:28;100826.69;;;15.52;67.34
70248;BME280;57641;51.416;5.506;2022-11-15T04:47:54;100819.47;;;15.52;67.41
70248;BME280;57641;51.416;5.506;2022-11-15T04:50:19;100813.72;;;15.55;67.39
70248;BME280;57641;51.416;5.506;2022-11-15T04:52:53;100818.06;;;15.56;67.15
70248;BME280;57641;51.416;5.506;2022-11-15T04:55:19;100822.16;;;15.52;67.27
70248;BME280;57641;51.416;5.506;2022-11-15T04:57:44;100816.63;;;15.54;67.33
70248;BME280;57641;51.416;5.506;2022-11-15T05:00:15;100820.59;;;15.58;67.31
70248;BME280;57641;51.416;5.506;2022-11-15T05:02:41;100811.25;;;15.54;67.08
70248;BME280;57641;51.416;5.506;2022-11-15T05:05:25;100817.13;;;15.49;67.44
70248;BME280;57641;51.416;5.506;2022-11-15T05:07:50;100809.25;;;15.48;67.57
70248;BME280;57641;51.416;5.506;2022-11-15T05:10:16;100809.56;;;15.53;67.48
70248;BME280;57641;51.416;5.506;2022-11-15T05:12:42;100808.34;;;15.55;67.45
70248;BME280;57641;51.416;5.506;2022-11-15T05:15:08;100815.25;;;15.50;67.21
70248;BME280;57641;51.416;5.506;2022-11-15T05:17:34;100816.09;;;15.50;67.36
70248;BME280;57641;51.416;5.506;2022-11-15T05:20:00;100813.94;;;15.54;67.54
70248;BME280;57641;51.416;5.506;2022-11-15T05:22:26;100813.53;;;15.57;67.94
70248;BME280;57641;51.416;5.506;2022-11-15T05:24:52;100805.75;;;15.62;67.48
70248;BME280;57641;51.416;5.506;2022-11-15T05:27:18;100809.44;;;15.61;67.39
70248;BME280;57641;51.416;5.506;2022-11-15T05:29:43;100806.59;;;15.62;67.46
70248;BME280;57641;51.416;5.506;2022-11-15T05:32:09;100800.81;;;15.66;67.43
70248;BME280;57641;51.416;5.506;2022-11-15T05:34:35;100799.53;;;15.61;67.22
70248;BME280;57641;51.416;5.506;2022-11-15T05:37:00;100799.19;;;15.65;67.17
70248;BME280;57641;51.416;5.506;2022-11-15T05:39:26;100800.47;;;15.69;67.22
70248;BME280;57641;51.416;5.506;2022-11-15T05:42:01;100794.25;;;15.68;67.23
70248;BME280;57641;51.416;5.506;2022-11-15T05:44:28;100802.16;;;15.70;67.08
70248;BME280;57641;51.416;5.506;2022-11-15T05:46:54;100803.78;;;15.71;67.18
70248;BME280;57641;51.416;5.506;2022-11-15T05:49:24;100802.78;;;15.72;66.96
70248;BME280;57641;51.416;5.506;2022-11-15T05:51:51;100809.72;;;15.66;66.40
70248;BME280;57641;51.416;5.506;2022-11-15T05:54:19;100809.94;;;15.65;67.06
70248;BME280;57641;51.416;5.506;2022-11-15T05:56:46;100815.22;;;15.58;66.83
70248;BME280;57641;51.416;5.506;2022-11-15T05:59:12;100811.09;;;15.47;67.73
70248;BME280;57641;51.416;5.506;2022-11-15T06:01:38;100818.50;;;15.45;68.23
70248;BME280;57641;51.416;5.506;2022-11-15T06:04:04;100826.84;;;15.50;67.88
70248;BME280;57641;51.416;5.506;2022-11-15T06:06:30;100819.31;;;15.54;67.73
70248;BME280;57641;51.416;5.506;2022-11-15T06:08:55;100815.25;;;15.50;68.25
70248;BME280;57641;51.416;5.506;2022-11-15T06:11:21;100824.03;;;15.52;68.13
70248;BME280;57641;51.416;5.506;2022-11-15T06:13:46;100828.38;;;15.53;68.12
70248;BME280;57641;51.416;5.506;2022-11-15T06:16:11;100818.91;;;15.57;68.34
70248;BME280;57641;51.416;5.506;2022-11-15T06:18:37;100818.66;;;15.52;67.96
70248;BME280;57641;51.416;5.506;2022-11-15T06:21:04;100829.00;;;15.55;67.84
70248;BME280;57641;51.416;5.506;2022-11-15T06:23:34;100829.38;;;15.52;68.30
70248;BME280;57641;51.416;5.506;2022-11-15T06:26:00;100832.91;;;15.52;68.37
70248;BME280;57641;51.416;5.506;2022-11-15T06:28:31;100823.19;;;15.51;68.06
70248;BME280;57641;51.416;5.506;2022-11-15T06:31:10;100832.22;;;15.50;68.22
70248;BME280;57641;51.416;5.506;2022-11-15T06:33:37;100839.56;;;15.56;68.00
70248;BME280;57641;51.416;5.506;2022-11-15T06:36:06;100842.44;;;15.55;67.90
70248;BME280;57641;51.416;5.506;2022-11-15T06:38:32;100840.25;;;15.58;68.14
70248;BME280;57641;51.416;5.506;2022-11-15T06:41:06;100833.28;;;15.64;67.88
70248;BME280;57641;51.416;5.506;2022-11-15T06:43:32;100845.88;;;15.63;67.86
70248;BME280;57641;51.416;5.506;2022-11-15T06:45:58;100844.88;;;15.65;67.65
70248;BME280;57641;51.416;5.506;2022-11-15T06:48:25;100838.44;;;15.66;67.07
70248;BME280;57641;51.416;5.506;2022-11-15T06:50:55;100835.97;;;15.64;66.99
70248;BME280;57641;51.416;5.506;2022-11-15T06:53:20;100847.00;;;15.69;67.41
70248;BME280;57641;51.416;5.506;2022-11-15T06:55:46;100841.41;;;15.71;66.96
70248;BME280;57641;51.416;5.506;2022-11-15T06:58:11;100850.13;;;15.73;66.56
70248;BME280;57641;51.416;5.506;2022-11-15T07:00:37;100854.69;;;15.72;66.65
70248;BME280;57641;51.416;5.506;2022-11-15T07:03:09;100856.53;;;15.72;66.24
70248;BME280;57641;51.416;5.506;2022-11-15T07:05:38;100864.31;;;15.67;66.29
70248;BME280;57641;51.416;5.506;2022-11-15T07:08:04;100868.84;;;15.66;66.26
70248;BME280;57641;51.416;5.506;2022-11-15T07:10:35;100861.00;;;15.65;66.12
70248;BME280;57641;51.416;5.506;2022-11-15T07:13:00;100877.47;;;15.61;66.01
70248;BME280;57641;51.416;5.506;2022-11-15T07:15:26;100874.44;;;15.65;66.09
70248;BME280;57641;51.416;5.506;2022-11-15T07:17:52;100872.66;;;15.57;66.32
70248;BME280;57641;51.416;5.506;2022-11-15T07:20:18;100870.06;;;15.49;66.07
70248;BME280;57641;51.416;5.506;2022-11-15T07:22:44;100877.00;;;15.43;66.69
70248;BME280;57641;51.416;5.506;2022-11-15T07:25:12;100874.09;;;15.45;66.91
70248;BME280;57641;51.416;5.506;2022-11-15T07:27:38;100882.38;;;15.43;66.64
70248;BME280;57641;51.416;5.506;2022-11-15T07:30:04;100884.22;;;15.43;66.91
70248;BME280;57641;51.416;5.506;2022-11-15T07:32:30;100886.69;;;15.44;66.67
70248;BME280;57641;51.416;5.506;2022-11-15T07:34:56;100891.78;;;15.39;66.65
70248;BME280;57641;51.416;5.506;2022-11-15T07:37:21;100887.97;;;15.34;66.86
70248;BME280;57641;51.416;5.506;2022-11-15T07:39:46;100888.47;;;15.37;67.05
70248;BME280;57641;51.416;5.506;2022-11-15T07:42:12;100888.47;;;15.37;66.92
70248;BME280;57641;51.416;5.506;2022-11-15T07:44:56;100876.44;;;15.33;66.78
70248;BME280;57641;51.416;5.506;2022-11-15T07:47:21;100872.97;;;15.39;66.92
70248;BME280;57641;51.416;5.506;2022-11-15T07:49:47;100862.91;;;15.41;66.79
70248;BME280;57641;51.416;5.506;2022-11-15T07:52:13;100861.03;;;15.42;66.36
70248;BME280;57641;51.416;5.506;2022-11-15T07:54:39;100870.78;;;15.43;66.13
70248;BME280;57641;51.416;5.506;2022-11-15T07:57:05;100866.78;;;15.39;65.86
70248;BME280;57641;51.416;5.506;2022-11-15T07:59:34;100861.22;;;15.40;65.92
70248;BME280;57641;51.416;5.506;2022-11-15T08:02:00;100865.13;;;15.38;66.08
70248;BME280;57641;51.416;5.506;2022-11-15T08:04:25;100875.75;;;15.31;66.06
70248;BME280;57641;51.416;5.506;2022-11-15T08:06:51;100881.81;;;15.33;66.00
70248;BME280;57641;51.416;5.506;2022-11-15T08:09:16;100878.44;;;15.31;65.94
70248;BME280;57641;51.416;5.506;2022-11-15T08:11:42;100884.81;;;15.15;65.95
70248;BME280;57641;51.416;5.506;2022-11-15T08:14:07;100890.00;;;15.17;66.48
70248;BME280;57641;51.416;5.506;2022-11-15T08:16:32;100891.66;;;15.18;66.30
70248;BME280;57641;51.416;5.506;2022-11-15T08:18:58;100887.84;;;15.12;65.87
70248;BME280;57641;51.416;5.506;2022-11-15T08:21:27;100892.22;;;15.13;66.49
70248;BME280;57641;51.416;5.506;2022-11-15T08:23:52;100889.72;;;15.12;66.41
70248;BME280;57641;51.416;5.506;2022-11-15T08:26:18;100890.00;;;15.17;66.64
70248;BME280;57641;51.416;5.506;2022-11-15T08:28:44;100883.44;;;15.19;66.20
70248;BME280;57641;51.416;5.506;2022-11-15T08:31:17;100872.84;;;15.18;65.70
70248;BME280;57641;51.416;5.506;2022-11-15T08:33:46;100874.69;;;15.17;65.96
70248;BME280;57641;51.416;5.506;2022-11-15T08:36:21;100858.91;;;15.23;65.98
70248;BME280;57641;51.416;5.506;2022-11-15T08:38:49;100863.63;;;15.20;66.11
70248;BME280;57641;51.416;5.506;2022-11-15T08:41:30;100860.94;;;15.20;65.88
70248;BME280;57641;51.416;5.506;2022-11-15T08:43:55;100863.25;;;15.23;65.89
70248;BME280;57641;51.416;5.506;2022-11-15T08:46:21;100862.88;;;15.27;65.77
70248;BME280;57641;51.416;5.506;2022-11-15T08:48:56;100853.59;;;15.29;65.68
70248;BME280;57641;51.416;5.506;2022-11-15T08:51:22;100848.06;;;15.31;65.80
70248;BME280;57641;51.416;5.506;2022-11-15T08:53:47;100848.53;;;15.34;66.01
70248;BME280;57641;51.416;5.506;2022-11-15T08:56:14;100841.41;;;15.41;65.69
70248;BME280;57641;51.416;5.506;2022-11-15T08:58:40;100850.03;;;15.37;65.81
70248;BME280;57641;51.416;5.506;2022-11-15T09:01:15;100853.66;;;15.44;65.90
70248;BME280;57641;51.416;5.506;2022-11-15T09:03:41;100852.81;;;15.43;65.84
70248;BME280;57641;51.416;5.506;2022-11-15T09:06:06;100849.28;;;15.43;65.36
70248;BME280;57641;51.416;5.506;2022-11-15T09:08:32;100842.78;;;15.37;65.45
70248;BME280;57641;51.416;5.506;2022-11-15T09:10:58;100839.44;;;15.35;65.90
70248;BME280;57641;51.416;5.506;2022-11-15T09:13:27;100831.50;;;15.42;65.95
70248;BME280;57641;51.416;5.506;2022-11-15T09:15:52;100822.88;;;15.46;65.87
70248;BME280;57641;51.416;5.506;2022-11-15T09:18:18;100824.38;;;15.49;65.76
70248;BME280;57641;51.416;5.506;2022-11-15T09:20:44;100818.06;;;15.56;65.59
70248;BME280;57641;51.416;5.506;2022-11-15T09:23:09;100810.59;;;15.52;65.45
70248;BME280;57641;51.416;5.506;2022-11-15T09:25:35;100808.22;;;15.34;66.02
70248;BME280;57641;51.416;5.506;2022-11-15T09:28:00;100812.50;;;15.43;65.90
70248;BME280;57641;51.416;5.506;2022-11-15T09:30:30;100806.75;;;15.32;64.15
70248;BME280;57641;51.416;5.506;2022-11-15T09:32:56;100814.34;;;15.28;64.68
70248;BME280;57641;51.416;5.506;2022-11-15T09:35:21;100813.59;;;15.19;64.80
70248;BME280;57641;51.416;5.506;2022-11-15T09:37:46;100799.81;;;15.37;63.24
70248;BME280;57641;51.416;5.506;2022-11-15T09:40:14;100806.84;;;15.38;64.22
70248;BME280;57641;51.416;5.506;2022-11-15T09:43:41;100800.25;;;15.41;63.52
70248;BME280;57641;51.416;5.506;2022-11-15T09:48:53;100802.41;;;15.16;62.73
70248;BME280;57641;51.416;5.506;2022-11-15T09:51:44;100800.97;;;14.91;63.18
70248;BME280;57641;51.416;5.506;2022-11-15T09:56:47;100797.94;;;15.08;61.78
70248;BME280;57641;51.416;5.506;2022-11-15T09:59:34;100798.81;;;14.86;62.42
70248;BME280;57641;51.416;5.506;2022-11-15T10:05:11;100788.19;;;14.93;62.77
70248;BME280;57641;51.416;5.506;2022-11-15T10:08:33;100790.16;;;14.99;61.93
70248;BME280;57641;51.416;5.506;2022-11-15T10:10:42;100786.84;;;15.11;61.81
70248;BME280;57641;51.416;5.506;2022-11-15T10:13:23;100778.22;;;15.31;61.34
70248;BME280;57641;51.416;5.506;2022-11-15T10:15:51;100787.84;;;15.40;61.69
70248;BME280;57641;51.416;5.506;2022-11-15T10:20:49;100784.06;;;15.49;59.94
70248;BME280;57641;51.416;5.506;2022-11-15T10:23:21;100782.19;;;15.49;59.67
70248;BME280;57641;51.416;5.506;2022-11-15T10:25:47;100781.47;;;15.41;59.21
70248;BME280;57641;51.416;5.506;2022-11-15T10:30:47;100769.59;;;15.35;58.46
70248;BME280;57641;51.416;5.506;2022-11-15T10:35:42;100769.25;;;15.38;57.66
70248;BME280;57641;51.416;5.506;2022-11-15T10:38:11;100765.91;;;15.21;57.35
70248;BME280;57641;51.416;5.506;2022-11-15T10:40:39;100764.22;;;15.35;58.28
70248;BME280;57641;51.416;5.506;2022-11-15T10:43:18;100765.44;;;15.18;57.18
70248;BME280;57641;51.416;5.506;2022-11-15T10:45:46;100751.38;;;15.31;57.31
70248;BME280;57641;51.416;5.506;2022-11-15T10:50:38;100745.53;;;15.42;57.94
70248;BME280;57641;51.416;5.506;2022-11-15T10:53:20;100737.38;;;15.35;56.94
70248;BME280;57641;51.416;5.506;2022-11-15T10:55:49;100739.56;;;15.46;56.58
70248;BME280;57641;51.416;5.506;2022-11-15T10:58:39;100731.53;;;15.46;56.36
70248;BME280;57641;51.416;5.506;2022-11-15T11:03:39;100729.34;;;15.71;56.24
70248;BME280;57641;51.416;5.506;2022-11-15T11:06:14;100723.50;;;15.82;56.24
70248;BME280;57641;51.416;5.506;2022-11-15T11:08:54;100727.31;;;15.73;55.79
70248;BME280;57641;51.416;5.506;2022-11-15T11:11:19;100732.16;;;15.99;56.02
70248;BME280;57641;51.416;5.506;2022-11-15T11:13:45;100720.44;;;16.07;55.18
70248;BME280;57641;51.416;5.506;2022-11-15T11:21:26;100701.63;;;15.85;54.25
70248;BME280;57641;51.416;5.506;2022-11-15T11:32:20;100670.69;;;16.17;53.81
70248;BME280;57641;51.416;5.506;2022-11-15T11:37:24;100666.06;;;16.32;53.81
70248;BME280;57641;51.416;5.506;2022-11-15T11:42:55;100641.91;;;16.45;53.78
70248;BME280;57641;51.416;5.506;2022-11-15T11:50:32;100639.28;;;16.80;53.31
70248;BME280;57641;51.416;5.506;2022-11-15T11:53:12;100634.75;;;16.87;52.87
70248;BME280;57641;51.416;5.506;2022-11-15T11:55:45;100625.44;;;16.89;52.72
70248;BME280;57641;51.416;5.506;2022-11-15T11:58:17;100620.47;;;16.86;53.07
70248;BME280;57641;51.416;5.506;2022-11-15T12:03:44;100612.84;;;16.97;52.12
70248;BME280;57641;51.416;5.506;2022-11-15T12:06:19;100603.34;;;17.01;52.55
70248;BME280;57641;51.416;5.506;2022-11-15T12:08:58;100599.81;;;17.00;51.82
70248;BME280;57641;51.416;5.506;2022-11-15T12:17:00;100589.38;;;16.84;51.51
70248;BME280;57641;51.416;5.506;2022-11-15T12:19:26;100586.94;;;16.96;51.72
70248;BME280;57641;51.416;5.506;2022-11-15T12:22:05;100588.22;;;17.06;51.72
70248;BME280;57641;51.416;5.506;2022-11-15T12:24:44;100581.00;;;17.20;51.50
70248;BME280;57641;51.416;5.506;2022-11-15T12:30:07;100568.91;;;16.89;51.27
70248;BME280;57641;51.416;5.506;2022-11-15T12:32:37;100564.38;;;16.97;50.90
70248;BME280;57641;51.416;5.506;2022-11-15T12:35:20;100562.09;;;17.00;50.07
70248;BME280;57641;51.416;5.506;2022-11-15T12:37:49;100556.31;;;17.10;49.90
70248;BME280;57641;51.416;5.506;2022-11-15T12:45:36;100555.06;;;17.06;49.38
70248;BME280;57641;51.416;5.506;2022-11-15T12:51:00;100542.44;;;17.06;49.34
70248;BME280;57641;51.416;5.506;2022-11-15T12:53:34;100535.59;;;17.10;49.93
70248;BME280;57641;51.416;5.506;2022-11-15T13:01:07;100523.63;;;17.13;49.81
70248;BME280;57641;51.416;5.506;2022-11-15T13:03:33;100515.75;;;17.18;49.36
70248;BME280;57641;51.416;5.506;2022-11-15T13:06:01;100513.88;;;17.12;49.41
70248;BME280;57641;51.416;5.506;2022-11-15T13:08:43;100500.19;;;17.20;49.36
70248;BME280;57641;51.416;5.506;2022-11-15T13:11:44;100498.53;;;17.19;49.67
70248;BME280;57641;51.416;5.506;2022-11-15T13:22:25;100484.22;;;17.05;50.58
70248;BME280;57641;51.416;5.506;2022-11-15T13:25:16;100473.25;;;17.07;50.63
70248;BME280;57641;51.416;5.506;2022-11-15T13:27:49;100473.66;;;17.10;50.62
70248;BME280;57641;51.416;5.506;2022-11-15T13:30:20;100475.94;;;17.20;50.18
70248;BME280;57641;51.416;5.506;2022-11-15T13:32:46;100462.69;;;17.25;50.37
70248;BME280;57641;51.416;5.506;2022-11-15T13:35:24;100459.38;;;17.29;49.91
70248;BME280;57641;51.416;5.506;2022-11-15T13:37:51;100462.28;;;17.28;49.99
70248;BME280;57641;51.416;5.506;2022-11-15T13:40:29;100450.06;;;17.32;49.59
70248;BME280;57641;51.416;5.506;2022-11-15T13:42:59;100452.13;;;17.23;50.14
70248;BME280;57641;51.416;5.506;2022-11-15T13:45:38;100447.16;;;17.27;49.36
70248;BME280;57641;51.416;5.506;2022-11-15T13:48:04;100435.34;;;17.28;49.68
70248;BME280;57641;51.416;5.506;2022-11-15T13:50:33;100438.25;;;17.33;49.59
70248;BME280;57641;51.416;5.506;2022-11-15T13:53:03;100427.88;;;17.30;50.08
70248;BME280;57641;51.416;5.506;2022-11-15T13:55:31;100430.16;;;17.26;50.04
70248;BME280;57641;51.416;5.506;2022-11-15T13:58:00;100414.81;;;17.27;50.14
70248;BME280;57641;51.416;5.506;2022-11-15T14:00:40;100409.63;;;17.25;50.17
70248;BME280;57641;51.416;5.506;2022-11-15T14:03:19;100406.53;;;17.22;50.09
70248;BME280;57641;51.416;5.506;2022-11-15T14:06:08;100407.16;;;17.17;50.27
70248;BME280;57641;51.416;5.506;2022-11-15T14:08:38;100399.47;;;17.14;49.86
70248;BME280;57641;51.416;5.506;2022-11-15T14:11:18;100393.25;;;17.14;49.79
70248;BME280;57641;51.416;5.506;2022-11-15T14:19:00;100388.47;;;17.03;50.56
70248;BME280;57641;51.416;5.506;2022-11-15T14:21:26;100376.69;;;17.10;50.87
70248;BME280;57641;51.416;5.506;2022-11-15T14:23:52;100380.41;;;17.16;50.79
70248;BME280;57641;51.416;5.506;2022-11-15T14:26:28;100376.69;;;17.17;50.75
70248;BME280;57641;51.416;5.506;2022-11-15T14:28:53;100374.81;;;17.11;50.86
70248;BME280;57641;51.416;5.506;2022-11-15T14:31:19;100361.56;;;17.09;50.67
70248;BME280;57641;51.416;5.506;2022-11-15T14:33:46;100362.59;;;17.15;50.65
70248;BME280;57641;51.416;5.506;2022-11-15T14:36:20;100354.72;;;17.20;51.26
70248;BME280;57641;51.416;5.506;2022-11-15T14:38:47;100353.28;;;17.17;50.81
70248;BME280;57641;51.416;5.506;2022-11-15T14:41:24;100346.44;;;17.21;51.45
70248;BME280;57641;51.416;5.506;2022-11-15T14:43:52;100346.81;;;17.18;51.23
70248;BME280;57641;51.416;5.506;2022-11-15T14:46:18;100343.34;;;17.18;51.39
70248;BME280;57641;51.416;5.506;2022-11-15T14:48:44;100341.03;;;17.15;51.39
70248;BME280;57641;51.416;5.506;2022-11-15T14:51:15;100331.09;;;17.15;51.13
70248;BME280;57641;51.416;5.506;2022-11-15T14:53:42;100329.22;;;17.16;51.39